Time;durP1;ratioP1;P1;durP2;ratioP2;P2;SDS_P1;SDS_P2;PMS_P1;PMS_P2;Temp;Humidity;BMP_temperature;BMP_pressure;BME280_temperature;BME280_humidity;BME280_pressure;Samples;Min_cycle;Max_cycle;Signal;HPM_P1;HPM_P2
2022/08/07 00:00:37;;;;;;;;;;;12.80;99.90;;;;;;5066294;28;19991;-78
2022/08/07 00:03:05;;;;;;;;;;;12.70;99.90;;;;;;5061908;28;20032;-79
2022/08/07 00:05:32;;;;;;;;;;;12.70;99.90;;;;;;5066226;28;19950;-81
2022/08/07 00:08:02;;;;;;;;;;;12.70;99.90;;;;;;5072894;28;19990;-80
2022/08/07 00:10:29;;;;;;;;;;;12.70;99.90;;;;;;5072176;28;19931;-81
2022/08/07 00:12:57;;;;;;;;;;;12.70;99.90;;;;;;5074111;28;19951;-80
2022/08/07 00:15:24;;;;;;;;;;;12.70;99.90;;;;;;5071512;28;19931;-81
2022/08/07 00:17:51;;;;;;;;;;;12.70;99.90;;;;;;5066926;28;19976;-81
2022/08/07 00:20:20;;;;;;;;;;;12.60;99.90;;;;;;5053936;28;19929;-80
2022/08/07 00:22:46;;;;;;;;;;;12.60;99.90;;;;;;5066776;28;19929;-81
2022/08/07 00:25:13;;;;;;;;;;;12.60;99.90;;;;;;5069877;28;19929;-82
2022/08/07 00:27:40;;;;;;;;;;;12.60;99.90;;;;;;5075716;28;19952;-81
2022/08/07 00:30:08;;;;;;;;;;;12.50;99.90;;;;;;5078364;28;19936;-80
2022/08/07 00:32:34;;;;;;;;;;;12.50;99.90;;;;;;5071606;28;20011;-81
2022/08/07 00:35:02;;;;;;;;;;;12.50;99.90;;;;;;5079384;28;19928;-81
2022/08/07 00:37:30;;;;;;;;;;;12.40;99.90;;;;;;5066855;28;19932;-81
2022/08/07 00:39:57;;;;;;;;;;;12.40;99.90;;;;;;5076362;28;19988;-81
2022/08/07 00:42:24;;;;;;;;;;;12.40;99.90;;;;;;5075286;28;19979;-81
2022/08/07 00:44:51;;;;;;;;;;;12.30;99.90;;;;;;5059863;28;19928;-80
2022/08/07 00:47:18;;;;;;;;;;;12.30;99.90;;;;;;5070001;28;19925;-81
2022/08/07 00:49:45;;;;;;;;;;;12.30;99.90;;;;;;5074441;28;20354;-79
2022/08/07 00:52:12;;;;;;;;;;;12.30;99.90;;;;;;5065376;28;19962;-79
2022/08/07 00:54:40;;;;;;;;;;;12.30;99.90;;;;;;5061470;28;19929;-78
2022/08/07 00:57:09;;;;;;;;;;;12.20;99.90;;;;;;5060130;28;19990;-78
2022/08/07 00:59:36;;;;;;;;;;;12.20;99.90;;;;;;5051202;28;19929;-78
2022/08/07 01:02:04;;;;;;;;;;;12.20;99.90;;;;;;5052234;28;19979;-78
2022/08/07 01:04:31;;;;;;;;;;;12.20;99.90;;;;;;5061099;28;19928;-79
2022/08/07 01:06:58;;;;;;;;;;;12.20;99.90;;;;;;5057291;28;20015;-79
2022/08/07 01:09:26;;;;;;;;;;;12.20;99.90;;;;;;5052169;28;20350;-79
2022/08/07 01:11:55;;;;;;;;;;;12.20;99.90;;;;;;5064518;28;20151;-78
2022/08/07 01:14:22;;;;;;;;;;;12.20;99.90;;;;;;5070811;28;19987;-79
2022/08/07 01:16:50;;;;;;;;;;;12.20;99.90;;;;;;5070686;28;19928;-79
2022/08/07 01:19:20;;;;;;;;;;;12.20;99.90;;;;;;5074842;28;19928;-78
2022/08/07 01:21:52;;;;;;;;;;;12.20;99.90;;;;;;5075057;28;20578;-81
2022/08/07 01:24:19;;;;;;;;;;;12.20;99.90;;;;;;5074618;28;19951;-81
2022/08/07 01:26:46;;;;;;;;;;;12.20;99.90;;;;;;5075489;28;19928;-82
2022/08/07 01:29:14;;;;;;;;;;;12.20;99.90;;;;;;5073067;28;19978;-82
2022/08/07 01:31:41;;;;;;;;;;;12.20;99.90;;;;;;5060251;28;19936;-82
2022/08/07 01:34:08;;;;;;;;;;;12.20;99.90;;;;;;5066151;28;19928;-82
2022/08/07 01:36:39;;;;;;;;;;;12.20;99.90;;;;;;5067774;28;19936;-82
2022/08/07 01:39:14;;;;;;;;;;;12.20;99.90;;;;;;5082418;28;19932;-82
2022/08/07 01:41:45;;;;;;;;;;;12.10;99.90;;;;;;5064505;28;20015;-81
2022/08/07 01:44:14;;;;;;;;;;;12.10;99.90;;;;;;5066949;28;20004;-82
2022/08/07 01:46:42;;;;;;;;;;;12.10;99.90;;;;;;5065437;28;19935;-81
2022/08/07 01:49:11;;;;;;;;;;;12.10;99.90;;;;;;5076883;28;19997;-82
2022/08/07 01:51:39;;;;;;;;;;;12.00;99.90;;;;;;5076241;28;19935;-81
2022/08/07 01:54:08;;;;;;;;;;;12.00;99.90;;;;;;5065036;28;19936;-80
2022/08/07 01:56:40;;;;;;;;;;;12.00;99.90;;;;;;5074402;28;20014;-80
2022/08/07 01:59:09;;;;;;;;;;;11.90;99.90;;;;;;5071216;28;19935;-80
2022/08/07 02:01:39;;;;;;;;;;;11.90;99.90;;;;;;5068406;28;19955;-80
2022/08/07 02:04:08;;;;;;;;;;;11.80;99.90;;;;;;5075249;28;19986;-80
2022/08/07 02:06:37;;;;;;;;;;;11.80;99.90;;;;;;5075043;28;19928;-80
2022/08/07 02:09:09;;;;;;;;;;;11.80;99.90;;;;;;5074030;28;19933;-79
2022/08/07 02:11:45;;;;;;;;;;;11.70;99.90;;;;;;5076317;28;20299;-80
2022/08/07 02:14:14;;;;;;;;;;;11.70;99.90;;;;;;5074957;28;19967;-80
2022/08/07 02:16:42;;;;;;;;;;;11.70;99.90;;;;;;5074903;28;19982;-80
2022/08/07 02:19:11;;;;;;;;;;;11.70;99.90;;;;;;5075715;28;20383;-79
2022/08/07 02:21:39;;;;;;;;;;;11.60;99.90;;;;;;5074709;28;19944;-80
2022/08/07 02:24:06;;;;;;;;;;;11.60;99.90;;;;;;5083120;28;19932;-81
2022/08/07 02:26:34;;;;;;;;;;;11.60;99.90;;;;;;5065203;28;19928;-81
2022/08/07 02:29:03;;;;;;;;;;;11.60;99.90;;;;;;5067479;28;19979;-81
2022/08/07 02:31:30;;;;;;;;;;;11.50;99.90;;;;;;5060312;28;19929;-81
2022/08/07 02:33:58;;;;;;;;;;;11.50;99.90;;;;;;5064983;28;19975;-80
2022/08/07 02:36:26;;;;;;;;;;;11.50;99.90;;;;;;5069028;28;19929;-81
2022/08/07 02:38:55;;;;;;;;;;;11.50;99.90;;;;;;5069648;28;19996;-80
2022/08/07 02:41:22;;;;;;;;;;;11.40;99.90;;;;;;5064087;28;20032;-80
2022/08/07 02:43:52;;;;;;;;;;;11.40;99.90;;;;;;5074508;28;20429;-81
2022/08/07 02:46:23;;;;;;;;;;;11.40;99.90;;;;;;5073847;28;19963;-80
2022/08/07 02:48:50;;;;;;;;;;;11.40;99.90;;;;;;5074485;28;19925;-80
2022/08/07 02:51:18;;;;;;;;;;;11.40;99.90;;;;;;5073371;28;19928;-79
2022/08/07 02:53:52;;;;;;;;;;;11.30;99.90;;;;;;5070380;28;20387;-79
2022/08/07 02:56:21;;;;;;;;;;;11.30;99.90;;;;;;5073008;28;20007;-77
2022/08/07 02:58:49;;;;;;;;;;;11.30;99.90;;;;;;5072598;28;19924;-79
2022/08/07 03:01:17;;;;;;;;;;;11.20;99.90;;;;;;5072265;28;19928;-80
2022/08/07 03:03:46;;;;;;;;;;;11.20;99.90;;;;;;5073981;28;19979;-80
2022/08/07 03:06:15;;;;;;;;;;;11.20;99.90;;;;;;5072244;28;19967;-79
2022/08/07 03:08:43;;;;;;;;;;;11.10;99.90;;;;;;5073171;28;19929;-79
2022/08/07 03:11:10;;;;;;;;;;;11.10;99.90;;;;;;5074307;28;19974;-80
2022/08/07 03:13:44;;;;;;;;;;;11.10;99.90;;;;;;5074682;28;19931;-80
2022/08/07 03:16:11;;;;;;;;;;;11.00;99.90;;;;;;5072971;28;19928;-81
2022/08/07 03:18:39;;;;;;;;;;;11.00;99.90;;;;;;5072346;28;19947;-80
2022/08/07 03:21:08;;;;;;;;;;;11.00;99.90;;;;;;5072735;28;20745;-80
2022/08/07 03:23:37;;;;;;;;;;;10.90;99.90;;;;;;5078649;28;19999;-80
2022/08/07 03:26:05;;;;;;;;;;;10.90;99.90;;;;;;5069271;28;19968;-82
2022/08/07 03:28:35;;;;;;;;;;;10.90;99.90;;;;;;5073204;28;19932;-83
2022/08/07 03:31:19;;;;;;;;;;;10.90;99.90;;;;;;5071782;28;19928;-82
2022/08/07 03:33:53;;;;;;;;;;;10.80;99.90;;;;;;5069173;28;20384;-82
2022/08/07 03:36:23;;;;;;;;;;;10.80;99.90;;;;;;5064978;28;19929;-82
2022/08/07 03:38:52;;;;;;;;;;;10.80;99.90;;;;;;5062198;28;19929;-82
2022/08/07 03:41:19;;;;;;;;;;;10.80;99.90;;;;;;5066037;28;19970;-83
2022/08/07 03:43:46;;;;;;;;;;;10.80;99.90;;;;;;5073093;28;19933;-82
2022/08/07 03:46:15;;;;;;;;;;;10.80;99.90;;;;;;5066877;28;20342;-81
2022/08/07 03:48:42;;;;;;;;;;;10.80;99.90;;;;;;5073640;28;19925;-79
2022/08/07 03:51:11;;;;;;;;;;;10.80;99.90;;;;;;5082314;28;19932;-79
2022/08/07 03:53:42;;;;;;;;;;;10.70;99.90;;;;;;5071591;28;19990;-79
2022/08/07 03:56:15;;;;;;;;;;;10.70;99.90;;;;;;5068937;28;19934;-79
2022/08/07 03:58:42;;;;;;;;;;;10.70;99.90;;;;;;5067145;28;20036;-78
2022/08/07 04:01:13;;;;;;;;;;;10.70;99.90;;;;;;5073923;28;19991;-79
2022/08/07 04:03:43;;;;;;;;;;;10.70;99.90;;;;;;5060721;28;19939;-77
2022/08/07 04:06:10;;;;;;;;;;;10.70;99.90;;;;;;5058904;28;20380;-77
2022/08/07 04:08:37;;;;;;;;;;;10.70;99.90;;;;;;5060324;28;20490;-77
2022/08/07 04:11:06;;;;;;;;;;;10.70;99.90;;;;;;5065984;28;19928;-77
2022/08/07 04:13:34;;;;;;;;;;;10.70;99.90;;;;;;5061578;28;19932;-78
2022/08/07 04:16:01;;;;;;;;;;;10.70;99.90;;;;;;5051261;28;20377;-77
2022/08/07 04:18:28;;;;;;;;;;;10.70;99.90;;;;;;5065890;28;20007;-77
2022/08/07 04:20:55;;;;;;;;;;;10.70;99.90;;;;;;5064702;28;19928;-77
2022/08/07 04:23:24;;;;;;;;;;;10.70;99.90;;;;;;5063653;28;19928;-77
2022/08/07 04:25:54;;;;;;;;;;;10.70;99.90;;;;;;5055525;28;19928;-77
2022/08/07 04:28:23;;;;;;;;;;;10.70;99.90;;;;;;5066171;28;19968;-78
2022/08/07 04:30:51;;;;;;;;;;;10.80;99.90;;;;;;5071081;28;20284;-81
2022/08/07 04:33:24;;;;;;;;;;;10.80;99.90;;;;;;5059410;28;19928;-81
2022/08/07 04:35:52;;;;;;;;;;;10.80;99.90;;;;;;5066035;28;20145;-81
2022/08/07 04:38:24;;;;;;;;;;;10.80;99.90;;;;;;5073566;28;19925;-81
2022/08/07 04:40:52;;;;;;;;;;;10.90;99.90;;;;;;5067849;28;19928;-80
2022/08/07 04:43:22;;;;;;;;;;;10.90;99.90;;;;;;5076489;28;19973;-79
2022/08/07 04:45:54;;;;;;;;;;;10.90;99.90;;;;;;5078413;28;19936;-80
2022/08/07 04:48:23;;;;;;;;;;;11.00;99.90;;;;;;5076122;28;20351;-78
2022/08/07 04:50:54;;;;;;;;;;;11.00;99.90;;;;;;5069203;28;19928;-79
2022/08/07 04:53:23;;;;;;;;;;;11.00;99.90;;;;;;5058458;28;19935;-84
2022/08/07 04:55:52;;;;;;;;;;;11.10;99.90;;;;;;5073292;28;19939;-80
2022/08/07 04:58:22;;;;;;;;;;;11.20;99.90;;;;;;5065025;28;19928;-80
2022/08/07 05:00:54;;;;;;;;;;;11.20;99.90;;;;;;5064954;28;19935;-80
2022/08/07 05:03:25;;;;;;;;;;;11.20;99.90;;;;;;5074411;28;19934;-79
2022/08/07 05:05:54;;;;;;;;;;;11.30;99.90;;;;;;5066180;28;19935;-80
2022/08/07 05:08:26;;;;;;;;;;;11.40;99.90;;;;;;5070119;28;19935;-81
2022/08/07 05:10:58;;;;;;;;;;;11.40;99.90;;;;;;5069358;28;20456;-81
2022/08/07 05:13:27;;;;;;;;;;;11.50;99.90;;;;;;5067411;28;19933;-82
2022/08/07 05:15:57;;;;;;;;;;;11.60;99.90;;;;;;5054283;28;19925;-79
2022/08/07 05:18:27;;;;;;;;;;;11.70;99.90;;;;;;5057516;28;20028;-80
2022/08/07 05:20:56;;;;;;;;;;;11.80;99.90;;;;;;5057411;28;19939;-80
2022/08/07 05:23:27;;;;;;;;;;;11.90;99.90;;;;;;5069461;28;19936;-82
2022/08/07 05:26:02;;;;;;;;;;;12.00;99.90;;;;;;5056593;28;20415;-80
2022/08/07 05:28:36;;;;;;;;;;;12.10;99.90;;;;;;5075744;28;19928;-84
2022/08/07 05:31:14;;;;;;;;;;;12.30;99.90;;;;;;5070291;28;19976;-83
2022/08/07 05:33:48;;;;;;;;;;;12.50;99.90;;;;;;5068153;28;19928;-83
2022/08/07 05:36:27;;;;;;;;;;;12.60;99.90;;;;;;5080107;28;20000;-83
2022/08/07 05:38:59;;;;;;;;;;;12.80;99.90;;;;;;5075067;28;20018;-83
2022/08/07 05:41:31;;;;;;;;;;;13.10;99.90;;;;;;5082019;28;19929;-83
2022/08/07 05:44:06;;;;;;;;;;;14.20;99.90;;;;;;5075265;28;19928;-81
2022/08/07 05:46:44;;;;;;;;;;;15.80;99.90;;;;;;5075381;28;19925;-81
2022/08/07 05:49:14;;;;;;;;;;;17.50;99.90;;;;;;5074099;28;20392;-83
2022/08/07 05:51:46;;;;;;;;;;;19.30;99.90;;;;;;5075205;28;20001;-83
2022/08/07 05:54:18;;;;;;;;;;;21.10;99.90;;;;;;5074342;28;19971;-82
2022/08/07 05:56:51;;;;;;;;;;;22.70;99.90;;;;;;5064453;28;20373;-84
2022/08/07 05:59:25;;;;;;;;;;;25.70;99.90;;;;;;5067531;28;20672;-84
2022/08/07 06:02:02;;;;;;;;;;;25.70;99.90;;;;;;5056912;28;19982;-84
2022/08/07 06:04:30;;;;;;;;;;;27.10;99.90;;;;;;5074241;28;20389;-84
2022/08/07 06:07:04;;;;;;;;;;;28.40;99.90;;;;;;5071637;28;20533;-85
2022/08/07 06:09:33;;;;;;;;;;;30.40;99.90;;;;;;5059920;28;19929;-84
2022/08/07 06:12:03;;;;;;;;;;;30.50;99.90;;;;;;5068697;28;20479;-85
2022/08/07 06:14:42;;;;;;;;;;;31.50;99.90;;;;;;5083343;28;19912;-84
2022/08/07 06:17:23;;;;;;;;;;;32.30;99.90;;;;;;5091809;28;19913;-83
2022/08/07 06:19:58;;;;;;;;;;;33.20;99.90;;;;;;5087811;28;19924;-84
2022/08/07 06:22:31;;;;;;;;;;;33.90;99.90;;;;;;5075288;28;20019;-85
2022/08/07 06:25:17;;;;;;;;;;;34.40;99.90;;;;;;5089549;28;19924;-83
2022/08/07 06:27:58;;;;;;;;;;;35.00;99.20;;;;;;5074046;28;19933;-84
2022/08/07 06:30:35;;;;;;;;;;;35.20;96.30;;;;;;5088420;28;19929;-84
2022/08/07 06:33:48;;;;;;;;;;;35.60;94.80;;;;;;5089227;28;19940;-81
2022/08/07 06:36:35;;;;;;;;;;;36.00;91.90;;;;;;5083252;28;19924;-84
2022/08/07 06:39:31;;;;;;;;;;;36.20;91.00;;;;;;5087408;28;19912;-83
2022/08/07 06:42:11;;;;;;;;;;;36.50;89.40;;;;;;5071435;28;19925;-83
2022/08/07 06:45:32;;;;;;;;;;;36.50;83.90;;;;;;5062077;28;19988;-83
2022/08/07 06:48:13;;;;;;;;;;;36.10;82.10;;;;;;5062323;28;19976;-84
2022/08/07 06:51:04;;;;;;;;;;;36.40;81.30;;;;;;5089970;28;19931;-84
2022/08/07 06:53:47;;;;;;;;;;;36.40;75.50;;;;;;5084049;28;19933;-80
2022/08/07 06:56:38;;;;;;;;;;;36.20;74.40;;;;;;5078554;28;19933;-80
2022/08/07 06:59:26;;;;;;;;;;;36.60;74.50;;;;;;5054889;28;20036;-80
2022/08/07 07:01:59;;;;;;;;;;;36.70;72.60;;;;;;5064242;28;19987;-80
2022/08/07 07:04:26;;;;;;;;;;;37.00;72.10;;;;;;5068160;28;19995;-80
2022/08/07 07:06:54;;;;;;;;;;;37.30;71.30;;;;;;5074711;28;19924;-81
2022/08/07 07:09:23;;;;;;;;;;;37.60;69.90;;;;;;5070402;28;19988;-82
2022/08/07 07:11:57;;;;;;;;;;;37.70;68.00;;;;;;5066293;28;19928;-82
2022/08/07 07:14:26;;;;;;;;;;;37.70;66.60;;;;;;5059771;28;20035;-81
2022/08/07 07:16:57;;;;;;;;;;;37.50;66.00;;;;;;5064000;28;19972;-82
2022/08/07 07:19:27;;;;;;;;;;;38.00;66.30;;;;;;5089974;28;19924;-81
2022/08/07 07:21:55;;;;;;;;;;;38.10;64.60;;;;;;5074956;28;19924;-81
2022/08/07 07:24:23;;;;;;;;;;;38.20;63.50;;;;;;5073574;28;19936;-81
2022/08/07 07:26:51;;;;;;;;;;;38.00;61.80;;;;;;5064848;28;19929;-82
2022/08/07 07:29:21;;;;;;;;;;;38.10;60.60;;;;;;5062779;28;19928;-79
2022/08/07 07:31:50;;;;;;;;;;;38.10;60.90;;;;;;5061705;28;20411;-80
2022/08/07 07:34:19;;;;;;;;;;;38.10;60.90;;;;;;5069823;28;19928;-80
2022/08/07 07:36:46;;;;;;;;;;;38.20;60.60;;;;;;5066598;28;19925;-81
2022/08/07 07:39:16;;;;;;;;;;;38.40;60.40;;;;;;5069047;28;19930;-83
2022/08/07 07:41:44;;;;;;;;;;;38.60;59.50;;;;;;5065168;28;19924;-82
2022/08/07 07:44:13;;;;;;;;;;;38.60;58.60;;;;;;5071121;28;19932;-83
2022/08/07 07:46:42;;;;;;;;;;;38.50;57.90;;;;;;5059118;28;20384;-82
2022/08/07 07:49:10;;;;;;;;;;;38.30;57.50;;;;;;5070937;28;19936;-82
2022/08/07 07:51:38;;;;;;;;;;;38.10;57.50;;;;;;5065141;28;20660;-83
2022/08/07 07:54:05;;;;;;;;;;;38.00;57.50;;;;;;5062653;28;20030;-82
2022/08/07 07:56:34;;;;;;;;;;;38.00;55.30;;;;;;5074483;28;19936;-84
2022/08/07 07:59:05;;;;;;;;;;;37.90;54.60;;;;;;5070166;28;19940;-83
2022/08/07 08:01:33;;;;;;;;;;;37.70;54.60;;;;;;5065345;28;19982;-83
2022/08/07 08:04:03;;;;;;;;;;;37.60;55.00;;;;;;5066707;28;19935;-84
2022/08/07 08:06:32;;;;;;;;;;;37.50;53.90;;;;;;5064655;28;19932;-81
2022/08/07 08:09:00;;;;;;;;;;;37.30;53.90;;;;;;5068089;28;19990;-81
2022/08/07 08:11:30;;;;;;;;;;;36.90;53.30;;;;;;5067729;28;20001;-80
2022/08/07 08:13:59;;;;;;;;;;;36.60;52.70;;;;;;5062350;28;19932;-80
2022/08/07 08:16:28;;;;;;;;;;;36.50;53.20;;;;;;5063263;28;20510;-80
2022/08/07 08:18:57;;;;;;;;;;;36.50;53.80;;;;;;5064459;28;19928;-80
2022/08/07 08:27:08;;;;;;;;;;;36.40;52.40;;;;;;5065574;28;19930;-81
2022/08/07 08:29:40;;;;;;;;;;;36.40;54.20;;;;;;5073897;28;19928;-81
2022/08/07 08:32:09;;;;;;;;;;;36.50;52.20;;;;;;5063485;28;19929;-81
2022/08/07 08:34:37;;;;;;;;;;;36.20;49.80;;;;;;5076148;28;19925;-81
2022/08/07 08:37:05;;;;;;;;;;;35.90;50.80;;;;;;5067225;28;19935;-81
2022/08/07 08:39:32;;;;;;;;;;;35.40;52.80;;;;;;5067341;28;19935;-80
2022/08/07 08:42:03;;;;;;;;;;;35.40;51.40;;;;;;5067485;28;19940;-81
2022/08/07 08:44:33;;;;;;;;;;;35.30;51.20;;;;;;5076058;28;19932;-80
2022/08/07 08:47:06;;;;;;;;;;;35.10;50.40;;;;;;5075132;28;19928;-81
2022/08/07 08:49:36;;;;;;;;;;;34.70;50.60;;;;;;5072757;28;19936;-80
2022/08/07 08:52:06;;;;;;;;;;;34.80;49.10;;;;;;5062687;28;20457;-80
2022/08/07 08:54:36;;;;;;;;;;;34.50;48.60;;;;;;5066120;28;19936;-81
2022/08/07 08:57:05;;;;;;;;;;;34.10;49.00;;;;;;5069777;28;19942;-79
2022/08/07 08:59:35;;;;;;;;;;;34.20;50.40;;;;;;5070376;28;19932;-79
2022/08/07 09:02:10;;;;;;;;;;;34.20;50.10;;;;;;5066969;28;19925;-78
2022/08/07 09:04:43;;;;;;;;;;;34.20;50.40;;;;;;5072982;28;19928;-79
2022/08/07 09:07:14;;;;;;;;;;;34.20;50.50;;;;;;5076625;28;19936;-79
2022/08/07 09:09:46;;;;;;;;;;;34.10;50.50;;;;;;5074982;28;19939;-79
2022/08/07 09:12:19;;;;;;;;;;;33.60;48.20;;;;;;5074057;28;19935;-79
2022/08/07 09:14:52;;;;;;;;;;;32.80;49.60;;;;;;5073537;28;19928;-79
2022/08/07 09:17:30;;;;;;;;;;;32.30;49.70;;;;;;5074721;28;19928;-80
2022/08/07 09:19:59;;;;;;;;;;;31.80;49.90;;;;;;5075128;28;19952;-80
2022/08/07 09:22:34;;;;;;;;;;;31.50;50.50;;;;;;5075059;28;20028;-78
2022/08/07 09:25:07;;;;;;;;;;;31.40;51.10;;;;;;5073120;28;19924;-79
2022/08/07 09:27:38;;;;;;;;;;;31.30;51.20;;;;;;5074539;28;19948;-80
2022/08/07 09:30:07;;;;;;;;;;;31.30;51.30;;;;;;5074496;28;20721;-80
2022/08/07 09:32:50;;;;;;;;;;;31.30;51.30;;;;;;5075793;28;19932;-80
2022/08/07 09:35:21;;;;;;;;;;;31.20;50.70;;;;;;5075706;28;20002;-80
2022/08/07 09:37:51;;;;;;;;;;;30.70;51.10;;;;;;5074491;28;19956;-79
2022/08/07 09:40:22;;;;;;;;;;;30.40;50.70;;;;;;5073642;28;19924;-79
2022/08/07 09:42:52;;;;;;;;;;;30.30;51.40;;;;;;5075222;28;20036;-80
2022/08/07 09:45:24;;;;;;;;;;;30.00;51.70;;;;;;5073724;28;19929;-79
2022/08/07 09:48:00;;;;;;;;;;;29.90;51.90;;;;;;5077686;28;20247;-81
2022/08/07 09:50:33;;;;;;;;;;;29.60;51.00;;;;;;5072614;28;20084;-79
2022/08/07 09:53:05;;;;;;;;;;;29.20;51.20;;;;;;5069558;28;19928;-81
2022/08/07 09:55:45;;;;;;;;;;;28.70;52.00;;;;;;5058070;28;19986;-81
2022/08/07 09:58:19;;;;;;;;;;;28.50;52.30;;;;;;5072093;28;19931;-80
2022/08/07 10:01:05;;;;;;;;;;;28.20;52.60;;;;;;5069287;28;19983;-81
2022/08/07 10:03:43;;;;;;;;;;;27.70;52.50;;;;;;5069309;28;20463;-83
2022/08/07 10:06:32;;;;;;;;;;;27.10;53.30;;;;;;5072968;28;19960;-80
2022/08/07 10:20:11;;;;;;;;;;;25.40;56.10;;;;;;5017897;28;20379;-84
2022/08/07 10:22:54;;;;;;;;;;;25.30;56.60;;;;;;5023081;28;19929;-85
2022/08/07 10:25:28;;;;;;;;;;;25.30;56.80;;;;;;5025516;28;19925;-85
2022/08/07 10:28:07;;;;;;;;;;;25.30;57.00;;;;;;5026614;28;20367;-85
2022/08/07 10:30:39;;;;;;;;;;;25.30;57.20;;;;;;5031824;28;19929;-84
2022/08/07 10:33:14;;;;;;;;;;;25.20;57.20;;;;;;5025410;28;19929;-85
2022/08/07 10:35:50;;;;;;;;;;;25.10;57.10;;;;;;5031216;28;20382;-84
2022/08/07 10:38:31;;;;;;;;;;;25.00;57.50;;;;;;5017950;28;19956;-85
2022/08/07 10:41:10;;;;;;;;;;;24.90;57.90;;;;;;5027340;28;19932;-85
2022/08/07 10:43:52;;;;;;;;;;;24.70;58.00;;;;;;5027953;28;19929;-84
2022/08/07 10:46:20;;;;;;;;;;;24.80;58.70;;;;;;5023435;28;19945;-85
2022/08/07 10:48:54;;;;;;;;;;;24.90;58.60;;;;;;5017734;28;20016;-84
2022/08/07 10:51:22;;;;;;;;;;;25.10;59.00;;;;;;5043693;28;19937;-85
2022/08/07 10:53:53;;;;;;;;;;;25.30;59.20;;;;;;5038028;28;19917;-84
2022/08/07 10:56:26;;;;;;;;;;;25.50;58.50;;;;;;5019501;28;20036;-85
2022/08/07 10:58:57;;;;;;;;;;;25.50;57.90;;;;;;5027241;28;19940;-85
2022/08/07 11:01:35;;;;;;;;;;;25.50;58.00;;;;;;5016094;28;20019;-84
2022/08/07 11:04:07;;;;;;;;;;;26.60;58.70;;;;;;5020405;28;19983;-85
2022/08/07 11:06:40;;;;;;;;;;;25.70;58.50;;;;;;5016217;28;19926;-85
2022/08/07 11:09:11;;;;;;;;;;;25.70;58.80;;;;;;5020565;28;19983;-85
2022/08/07 11:11:43;;;;;;;;;;;25.90;58.30;;;;;;5024654;28;19933;-85
2022/08/07 11:14:13;;;;;;;;;;;26.00;58.00;;;;;;5017293;28;19936;-85
2022/08/07 11:16:43;;;;;;;;;;;26.00;58.00;;;;;;5012206;28;19971;-85
2022/08/07 11:19:11;;;;;;;;;;;26.00;58.80;;;;;;5018794;28;19929;-86
2022/08/07 11:21:42;;;;;;;;;;;26.10;58.20;;;;;;5017351;28;19987;-86
2022/08/07 11:24:14;;;;;;;;;;;26.20;57.60;;;;;;5022951;28;20004;-85
2022/08/07 11:26:44;;;;;;;;;;;26.30;57.90;;;;;;5016877;28;19929;-85
2022/08/07 11:29:16;;;;;;;;;;;26.30;57.10;;;;;;5022699;28;19933;-86
2022/08/07 11:31:48;;;;;;;;;;;26.30;57.10;;;;;;5027071;28;20019;-86
2022/08/07 11:34:24;;;;;;;;;;;26.30;56.70;;;;;;5031625;28;19948;-85
2022/08/07 11:36:59;;;;;;;;;;;26.10;57.00;;;;;;5033209;28;20067;-84
2022/08/07 11:39:44;;;;;;;;;;;26.10;57.10;;;;;;5030001;28;19926;-86
2022/08/07 11:42:14;;;;;;;;;;;26.10;57.10;;;;;;5040136;28;19933;-86
2022/08/07 11:44:47;;;;;;;;;;;26.10;57.00;;;;;;5026822;28;19933;-85
2022/08/07 11:47:21;;;;;;;;;;;26.10;57.30;;;;;;5026776;28;19935;-85
2022/08/07 11:50:00;;;;;;;;;;;26.20;57.40;;;;;;5037210;28;19988;-86
2022/08/07 11:52:35;;;;;;;;;;;26.30;57.70;;;;;;5035045;28;19964;-86
2022/08/07 11:55:08;;;;;;;;;;;26.50;57.90;;;;;;5026035;28;19929;-86
2022/08/07 11:57:40;;;;;;;;;;;26.60;57.30;;;;;;5023710;28;19929;-86
2022/08/07 12:00:10;;;;;;;;;;;26.80;57.30;;;;;;5025814;28;19928;-86
2022/08/07 12:02:50;;;;;;;;;;;26.70;57.30;;;;;;5026487;28;19960;-86
2022/08/07 12:05:20;;;;;;;;;;;26.90;58.10;;;;;;5026599;28;19936;-86
2022/08/07 12:07:53;;;;;;;;;;;27.10;57.70;;;;;;5025617;28;20370;-86
2022/08/07 12:10:35;;;;;;;;;;;27.20;56.80;;;;;;5024823;28;19944;-85
2022/08/07 12:13:06;;;;;;;;;;;27.30;56.40;;;;;;5015080;28;20398;-86
2022/08/07 12:15:34;;;;;;;;;;;27.50;56.60;;;;;;5031906;28;19929;-85
2022/08/07 12:18:05;;;;;;;;;;;27.60;56.80;;;;;;5038860;28;19972;-85
2022/08/07 12:20:34;;;;;;;;;;;27.70;56.50;;;;;;5045023;28;20003;-85
2022/08/07 12:23:14;;;;;;;;;;;27.70;55.50;;;;;;5040130;28;19944;-85
2022/08/07 12:25:55;;;;;;;;;;;27.80;56.30;;;;;;5054189;28;19933;-85
2022/08/07 12:28:26;;;;;;;;;;;27.80;56.20;;;;;;5043118;28;19940;-86
2022/08/07 12:30:55;;;;;;;;;;;28.00;56.80;;;;;;5030253;28;20313;-87
2022/08/07 12:33:25;;;;;;;;;;;28.10;56.20;;;;;;5011794;28;20328;-87
2022/08/07 12:35:53;;;;;;;;;;;28.10;55.00;;;;;;5017280;28;19929;-88
2022/08/07 12:38:22;;;;;;;;;;;28.10;55.60;;;;;;5041527;28;20119;-87
2022/08/07 12:40:51;;;;;;;;;;;28.30;55.80;;;;;;5033077;28;19937;-88
2022/08/07 12:43:19;;;;;;;;;;;28.50;55.90;;;;;;5048849;28;19933;-87
2022/08/07 12:45:51;;;;;;;;;;;28.60;55.70;;;;;;5021411;28;19940;-86
2022/08/07 12:48:25;;;;;;;;;;;28.80;55.10;;;;;;5033666;28;19925;-86
2022/08/07 12:50:57;;;;;;;;;;;28.70;55.00;;;;;;5017523;28;19940;-87
2022/08/07 12:53:29;;;;;;;;;;;28.80;55.20;;;;;;5017964;28;19925;-87
2022/08/07 12:55:58;;;;;;;;;;;28.90;55.40;;;;;;5037548;28;19950;-87
2022/08/07 12:58:27;;;;;;;;;;;29.00;54.80;;;;;;5037650;28;19937;-87
2022/08/07 13:00:59;;;;;;;;;;;28.80;54.70;;;;;;5027511;28;19925;-87
2022/08/07 13:03:44;;;;;;;;;;;28.60;55.10;;;;;;5013014;28;19960;-86
2022/08/07 13:06:20;;;;;;;;;;;28.80;54.60;;;;;;5017900;28;19931;-86
2022/08/07 13:08:55;;;;;;;;;;;28.50;54.00;;;;;;5015192;28;20092;-87
2022/08/07 13:11:30;;;;;;;;;;;28.80;54.90;;;;;;5026733;28;20072;-86
2022/08/07 13:14:01;;;;;;;;;;;28.80;54.40;;;;;;5031618;28;19933;-86
2022/08/07 13:16:31;;;;;;;;;;;28.70;54.90;;;;;;5030216;28;19983;-86
2022/08/07 13:19:02;;;;;;;;;;;28.80;55.10;;;;;;5029431;28;19955;-86
2022/08/07 13:21:31;;;;;;;;;;;28.80;54.10;;;;;;5025279;28;20020;-84
2022/08/07 13:24:01;;;;;;;;;;;28.70;54.20;;;;;;5028053;28;19929;-86
2022/08/07 13:26:31;;;;;;;;;;;28.60;54.70;;;;;;5042637;28;19975;-88
2022/08/07 13:29:00;;;;;;;;;;;28.80;55.40;;;;;;5045986;28;20941;-87
2022/08/07 13:31:30;;;;;;;;;;;28.90;55.30;;;;;;5045893;28;19927;-87
2022/08/07 13:33:59;;;;;;;;;;;29.20;55.30;;;;;;5030417;28;19925;-85
2022/08/07 13:39:04;;;;;;;;;;;30.10;55.00;;;;;;5043668;28;19955;-79
2022/08/07 13:41:37;;;;;;;;;;;29.50;55.00;;;;;;5026634;28;19933;-80
2022/08/07 13:44:05;;;;;;;;;;;29.60;54.80;;;;;;5027119;28;19932;-81
2022/08/07 13:46:35;;;;;;;;;;;29.50;53.30;;;;;;5021112;28;19940;-82
2022/08/07 13:49:04;;;;;;;;;;;29.40;54.10;;;;;;5039043;28;19999;-82
2022/08/07 13:51:34;;;;;;;;;;;29.40;53.10;;;;;;5021279;28;19932;-82
2022/08/07 13:54:04;;;;;;;;;;;29.20;53.50;;;;;;5032227;28;19963;-79
2022/08/07 13:56:34;;;;;;;;;;;29.40;53.80;;;;;;5015812;28;19936;-79
2022/08/07 13:59:02;;;;;;;;;;;29.40;54.00;;;;;;5015746;28;19929;-80
2022/08/07 14:01:32;;;;;;;;;;;29.40;53.10;;;;;;5008771;28;20228;-79
2022/08/07 14:04:01;;;;;;;;;;;29.20;53.50;;;;;;5005671;28;20377;-79
2022/08/07 14:06:34;;;;;;;;;;;29.10;54.00;;;;;;5018111;28;20419;-79
2022/08/07 14:09:04;;;;;;;;;;;29.10;54.60;;;;;;5016046;28;20481;-79
2022/08/07 14:11:33;;;;;;;;;;;29.00;53.20;;;;;;5016308;28;19928;-79
2022/08/07 14:14:07;;;;;;;;;;;29.10;54.00;;;;;;5016546;28;20002;-80
2022/08/07 14:16:37;;;;;;;;;;;28.90;53.60;;;;;;5015773;28;19925;-79
2022/08/07 14:19:11;;;;;;;;;;;28.90;55.00;;;;;;5017450;28;19987;-79
2022/08/07 14:21:42;;;;;;;;;;;29.00;55.30;;;;;;5015978;28;19936;-79
2022/08/07 14:24:13;;;;;;;;;;;29.20;55.30;;;;;;5033045;28;20703;-80
2022/08/07 14:26:43;;;;;;;;;;;29.40;54.90;;;;;;5033622;28;19983;-80
2022/08/07 14:29:12;;;;;;;;;;;29.50;55.10;;;;;;5016756;28;19929;-80
2022/08/07 14:31:40;;;;;;;;;;;29.60;55.20;;;;;;5015232;28;20026;-80
2022/08/07 14:34:07;;;;;;;;;;;29.70;55.50;;;;;;5017805;28;20043;-80
2022/08/07 14:36:35;;;;;;;;;;;29.70;56.10;;;;;;5017240;28;19925;-80
2022/08/07 14:39:03;;;;;;;;;;;29.60;55.90;;;;;;5016500;28;19925;-80
2022/08/07 14:41:32;;;;;;;;;;;29.60;56.20;;;;;;5028995;28;20218;-80
2022/08/07 14:44:01;;;;;;;;;;;29.30;55.00;;;;;;5023678;28;19937;-80
2022/08/07 14:46:28;;;;;;;;;;;29.20;55.70;;;;;;4998033;28;19936;-80
2022/08/07 14:48:56;;;;;;;;;;;29.20;55.40;;;;;;5000174;28;19976;-82
2022/08/07 14:51:26;;;;;;;;;;;29.40;54.80;;;;;;4999933;28;19933;-82
2022/08/07 14:53:55;;;;;;;;;;;29.50;54.40;;;;;;5008472;28;19933;-81
2022/08/07 14:56:24;;;;;;;;;;;29.50;54.50;;;;;;5010076;28;19929;-81
2022/08/07 14:58:54;;;;;;;;;;;29.60;54.90;;;;;;4998235;28;19933;-81